Time;durP1;ratioP1;P1;durP2;ratioP2;P2;SDS_P1;SDS_P2;PMS_P1;PMS_P2;Temp;Humidity;BMP_temperature;BMP_pressure;BME280_temperature;BME280_humidity;BME280_pressure;Samples;Min_cycle;Max_cycle;Signal;HPM_P1;HPM_P2
2021/12/26 04:01:16;;;;;;;6.17;3.77;;;7.80;81.80;;;;;;5775395;22;20946;-74
2021/12/26 04:03:43;;;;;;;5.63;4.20;;;7.90;81.70;;;;;;5033469;28;20451;-76
2021/12/26 04:06:10;;;;;;;15.87;5.33;;;7.80;81.80;;;;;;5033402;28;20436;-76
2021/12/26 04:08:37;;;;;;;9.97;4.40;;;7.80;81.70;;;;;;5033417;28;20438;-76
2021/12/26 04:11:04;;;;;;;4.27;3.00;;;7.80;81.80;;;;;;5033275;28;20467;-76
2021/12/26 04:13:31;;;;;;;4.23;3.10;;;7.80;81.80;;;;;;5033344;28;20495;-76
2021/12/26 04:15:57;;;;;;;5.20;3.20;;;7.90;82.00;;;;;;5155682;22;20526;-75
2021/12/26 04:18:25;;;;;;;5.90;3.10;;;7.90;81.80;;;;;;5037317;28;20883;-74
2021/12/26 04:20:52;;;;;;;5.90;4.00;;;7.90;81.90;;;;;;5037421;28;20451;-74
2021/12/26 04:23:19;;;;;;;8.43;3.60;;;7.80;81.90;;;;;;5037296;28;20447;-74
2021/12/26 04:25:46;;;;;;;9.53;4.07;;;7.80;82.00;;;;;;5037261;28;20517;-74
2021/12/26 04:28:17;;;;;;;13.53;4.00;;;7.90;81.90;;;;;;5037214;28;20475;-74
2021/12/26 04:30:43;;;;;;;4.50;3.33;;;7.90;81.90;;;;;;5037279;28;20443;-74
2021/12/26 04:33:10;;;;;;;6.77;3.90;;;7.90;81.80;;;;;;5036803;28;21008;-74
2021/12/26 04:35:38;;;;;;;3.70;2.50;;;7.90;82.00;;;;;;5037055;28;20443;-74
2021/12/26 04:38:05;;;;;;;6.00;2.93;;;7.90;81.90;;;;;;5037329;28;20439;-74
2021/12/26 04:40:32;;;;;;;6.73;3.53;;;7.90;82.00;;;;;;5037017;28;20451;-74
2021/12/26 04:42:59;;;;;;;3.70;2.90;;;7.90;81.70;;;;;;5043979;28;20451;-74
2021/12/26 04:45:26;;;;;;;4.03;2.90;;;7.90;81.60;;;;;;5058392;28;20427;-73
2021/12/26 04:47:53;;;;;;;4.47;3.30;;;8.00;81.60;;;;;;5056497;28;20528;-74
2021/12/26 04:50:23;;;;;;;6.80;3.77;;;8.00;81.60;;;;;;5036978;28;20447;-74
2021/12/26 04:52:52;;;;;;;4.43;3.20;;;8.00;81.50;;;;;;5036886;28;20457;-74
2021/12/26 04:55:21;;;;;;;10.37;4.87;;;8.00;81.60;;;;;;5036608;28;20501;-74
2021/12/26 04:57:49;;;;;;;4.53;3.40;;;8.00;81.60;;;;;;5036646;28;20439;-74
2021/12/26 05:00:18;;;;;;;6.10;3.23;;;8.00;81.60;;;;;;5036313;28;20451;-74
2021/12/26 05:02:46;;;;;;;7.43;3.47;;;7.90;81.60;;;;;;5036573;28;20505;-74
2021/12/26 05:05:14;;;;;;;5.83;2.87;;;8.00;81.60;;;;;;5036217;28;20450;-74
2021/12/26 05:07:42;;;;;;;5.97;3.00;;;8.00;81.60;;;;;;5036345;28;20479;-74
2021/12/26 05:10:14;;;;;;;4.40;3.53;;;8.00;81.60;;;;;;5036451;28;20821;-75
2021/12/26 05:12:41;;;;;;;8.10;3.57;;;8.00;81.70;;;;;;5036363;28;20436;-74
2021/12/26 05:15:09;;;;;;;10.67;4.30;;;8.00;81.70;;;;;;5036311;28;20454;-74
2021/12/26 05:17:36;;;;;;;3.90;3.07;;;8.00;81.60;;;;;;5035860;28;20528;-74
2021/12/26 05:20:04;;;;;;;4.13;2.50;;;8.00;81.60;;;;;;5037108;28;20802;-74
2021/12/26 05:22:31;;;;;;;4.80;3.40;;;8.00;81.70;;;;;;5036191;28;20494;-74
2021/12/26 05:24:57;;;;;;;5.63;3.97;;;8.00;81.80;;;;;;5035792;28;20474;-74
2021/12/26 05:27:26;;;;;;;9.23;3.00;;;8.00;81.60;;;;;;5035892;28;20478;-74
2021/12/26 05:29:52;;;;;;;17.73;5.73;;;8.00;81.50;;;;;;5036027;28;20443;-74
2021/12/26 05:32:19;;;;;;;6.43;3.67;;;8.00;81.50;;;;;;5036037;28;20452;-74
2021/12/26 05:34:45;;;;;;;8.30;3.70;;;8.00;81.70;;;;;;5036024;28;20569;-74
2021/12/26 05:37:12;;;;;;;9.67;3.67;;;8.00;81.90;;;;;;5035874;28;20874;-74
2021/12/26 05:39:39;;;;;;;9.90;4.60;;;8.00;81.90;;;;;;5035569;28;20845;-74
2021/12/26 05:42:07;;;;;;;8.40;5.10;;;8.00;81.90;;;;;;5035961;28;20439;-74
2021/12/26 05:44:35;;;;;;;6.33;3.80;;;8.00;82.00;;;;;;5035515;28;20934;-75
2021/12/26 05:47:01;;;;;;;13.63;5.10;;;8.00;81.70;;;;;;5035276;28;20881;-74
2021/12/26 05:49:28;;;;;;;7.40;3.70;;;8.00;81.90;;;;;;5035453;28;20856;-74
2021/12/26 05:51:55;;;;;;;4.60;3.43;;;8.00;82.00;;;;;;5035689;28;20479;-74
2021/12/26 05:54:21;;;;;;;9.93;4.60;;;8.00;81.90;;;;;;5035623;28;20451;-74
2021/12/26 05:56:48;;;;;;;16.23;5.53;;;8.00;82.00;;;;;;5035499;28;20533;-74
2021/12/26 05:59:15;;;;;;;18.67;6.03;;;8.00;82.00;;;;;;5035601;28;20447;-74
2021/12/26 06:01:43;;;;;;;9.43;4.70;;;8.00;82.20;;;;;;5035509;28;20447;-74
2021/12/26 06:04:09;;;;;;;6.33;4.50;;;8.00;82.30;;;;;;5035550;28;20513;-75
2021/12/26 06:06:36;;;;;;;12.07;4.80;;;8.00;82.30;;;;;;5035376;28;20463;-74
2021/12/26 06:09:03;;;;;;;9.07;5.13;;;7.90;82.30;;;;;;5035304;28;20483;-74
2021/12/26 06:11:30;;;;;;;16.37;6.10;;;7.90;82.20;;;;;;5036234;28;20538;-75
2021/12/26 06:13:56;;;;;;;7.13;4.87;;;7.90;82.40;;;;;;5035304;28;20578;-75
2021/12/26 06:16:23;;;;;;;11.23;4.40;;;7.90;82.50;;;;;;5034947;28;20475;-74
2021/12/26 06:18:51;;;;;;;8.90;5.17;;;7.90;82.60;;;;;;5035196;28;20447;-74
2021/12/26 06:21:18;;;;;;;7.60;4.80;;;7.80;82.80;;;;;;5035151;28;20451;-74
2021/12/26 06:23:50;;;;;;;13.67;5.97;;;7.80;82.80;;;;;;5034838;28;21047;-75
2021/12/26 06:26:17;;;;;;;11.13;4.90;;;7.90;82.70;;;;;;5034748;28;20467;-73
2021/12/26 06:28:43;;;;;;;9.40;4.30;;;7.90;82.80;;;;;;5034935;28;20487;-75
2021/12/26 06:31:11;;;;;;;21.13;6.30;;;7.90;82.90;;;;;;5034953;28;20505;-75
2021/12/26 06:33:38;;;;;;;6.23;4.60;;;7.90;83.00;;;;;;5034914;28;20455;-75
2021/12/26 06:36:06;;;;;;;17.83;6.80;;;7.90;82.90;;;;;;5034786;28;20475;-74
2021/12/26 06:38:34;;;;;;;26.03;7.77;;;7.80;83.00;;;;;;5034060;28;20447;-74
2021/12/26 06:41:00;;;;;;;30.93;6.93;;;7.80;83.10;;;;;;5034783;28;20461;-74
2021/12/26 06:43:27;;;;;;;23.63;8.13;;;7.80;82.90;;;;;;5034733;28;20455;-74
2021/12/26 06:45:55;;;;;;;4.93;4.30;;;7.40;83.90;;;;;;5034535;28;20834;-74
2021/12/26 06:48:22;;;;;;;6.13;4.30;;;7.40;84.10;;;;;;5034525;28;20487;-74
2021/12/26 06:50:49;;;;;;;10.07;4.50;;;7.50;84.30;;;;;;5034578;28;20444;-74
2021/12/26 06:53:18;;;;;;;8.70;4.60;;;7.60;84.20;;;;;;5034495;28;20855;-75
2021/12/26 06:55:46;;;;;;;8.07;4.77;;;7.70;84.10;;;;;;5034106;28;20902;-74
2021/12/26 06:58:13;;;;;;;5.57;4.60;;;7.70;84.00;;;;;;5034493;28;20852;-75
2021/12/26 07:00:40;;;;;;;5.37;4.87;;;7.60;83.80;;;;;;5034430;28;20498;-74
2021/12/26 07:03:08;;;;;;;8.77;5.37;;;7.70;84.20;;;;;;5034490;28;20447;-74
2021/12/26 07:05:35;;;;;;;6.20;4.73;;;7.80;83.90;;;;;;5034235;28;20455;-74
2021/12/26 07:08:02;;;;;;;7.03;4.40;;;7.80;83.90;;;;;;5034573;28;20509;-75
2021/12/26 07:10:30;;;;;;;7.50;5.37;;;7.60;84.50;;;;;;5034270;28;20501;-74
2021/12/26 07:12:57;;;;;;;5.00;4.50;;;7.60;84.20;;;;;;5034282;28;20444;-74
2021/12/26 07:15:23;;;;;;;4.33;3.90;;;7.40;85.00;;;;;;5034108;28;20480;-74
2021/12/26 07:17:50;;;;;;;6.43;5.60;;;7.60;84.50;;;;;;5033731;28;20455;-74
2021/12/26 07:20:17;;;;;;;11.00;4.60;;;7.70;84.30;;;;;;5034278;28;20447;-74
2021/12/26 07:22:46;;;;;;;8.00;4.57;;;7.70;84.30;;;;;;5034044;28;20541;-74
2021/12/26 07:25:13;;;;;;;8.33;5.43;;;7.60;84.20;;;;;;5034013;28;20498;-75
2021/12/26 07:27:42;;;;;;;5.97;5.37;;;7.60;84.00;;;;;;5033496;28;20989;-75
2021/12/26 07:30:10;;;;;;;4.80;4.30;;;7.50;84.40;;;;;;5034130;28;20497;-74
2021/12/26 07:32:37;;;;;;;5.40;4.90;;;7.60;84.70;;;;;;5033884;28;20455;-74
2021/12/26 07:35:04;;;;;;;5.43;4.40;;;7.40;85.10;;;;;;5033817;28;20451;-74
2021/12/26 07:37:31;;;;;;;5.57;4.83;;;7.40;84.80;;;;;;5033707;28;20520;-74
2021/12/26 07:39:58;;;;;;;5.33;4.40;;;7.50;85.10;;;;;;5033669;28;20472;-74
2021/12/26 07:42:25;;;;;;;4.87;4.17;;;7.20;86.00;;;;;;5033707;28;20527;-75
2021/12/26 07:44:53;;;;;;;5.40;4.50;;;7.20;85.90;;;;;;5033649;28;20501;-75
2021/12/26 07:47:19;;;;;;;8.17;5.57;;;7.40;85.60;;;;;;5033576;28;20467;-73
2021/12/26 07:49:46;;;;;;;6.73;6.13;;;7.40;85.60;;;;;;5033381;28;20483;-75
2021/12/26 07:52:19;;;;;;;6.37;5.43;;;7.30;85.10;;;;;;5033572;28;20961;-75
2021/12/26 07:54:46;;;;;;;6.03;5.43;;;7.40;86.00;;;;;;5033896;28;20435;-75
2021/12/26 07:57:13;;;;;;;5.70;5.20;;;7.50;85.20;;;;;;5033464;28;20813;-74
2021/12/26 07:59:40;;;;;;;4.80;4.30;;;7.60;84.90;;;;;;5033445;28;20443;-74
2021/12/26 08:02:08;;;;;;;5.10;4.50;;;7.50;85.50;;;;;;5033462;28;20574;-74
2021/12/26 08:04:35;;;;;;;4.80;3.97;;;7.60;85.40;;;;;;5033394;28;20444;-75
2021/12/26 08:07:02;;;;;;;4.80;4.03;;;7.60;85.00;;;;;;5033320;28;20521;-74
2021/12/26 08:09:28;;;;;;;5.53;4.43;;;7.80;84.80;;;;;;5033317;28;20514;-75
2021/12/26 08:11:55;;;;;;;5.40;4.90;;;7.80;84.60;;;;;;5033338;28;20447;-74
2021/12/26 08:14:22;;;;;;;5.23;4.57;;;7.80;84.40;;;;;;5033314;28;20447;-74
2021/12/26 08:16:49;;;;;;;5.70;4.93;;;7.80;84.70;;;;;;5032941;28;20483;-74
2021/12/26 08:19:17;;;;;;;4.87;3.93;;;7.80;84.50;;;;;;5032940;28;20989;-75
2021/12/26 08:21:43;;;;;;;4.70;4.10;;;7.60;84.20;;;;;;5033229;28;20456;-74
2021/12/26 08:24:10;;;;;;;5.30;4.47;;;7.70;85.30;;;;;;5033335;28;20530;-75
2021/12/26 08:26:37;;;;;;;5.50;4.63;;;7.80;84.80;;;;;;5032854;28;21068;-75
2021/12/26 08:29:04;;;;;;;5.13;4.63;;;7.90;84.40;;;;;;5033138;28;20479;-75
2021/12/26 08:31:31;;;;;;;5.47;4.87;;;8.00;84.00;;;;;;5032844;28;20942;-75
2021/12/26 08:33:58;;;;;;;5.03;4.53;;;8.10;83.90;;;;;;5033325;28;20478;-75
2021/12/26 08:36:26;;;;;;;5.20;4.70;;;8.10;83.80;;;;;;5032798;28;20878;-74
2021/12/26 08:38:53;;;;;;;5.90;5.07;;;7.90;84.10;;;;;;5033114;28;20452;-75
2021/12/26 08:41:19;;;;;;;6.10;5.47;;;7.80;84.20;;;;;;5033079;28;20447;-75
2021/12/26 08:43:47;;;;;;;6.60;6.00;;;7.70;84.80;;;;;;5033068;28;20497;-75
2021/12/26 08:46:14;;;;;;;6.40;5.80;;;7.80;84.70;;;;;;5032812;28;20482;-75
2021/12/26 08:48:41;;;;;;;6.30;5.30;;;7.80;84.90;;;;;;5032669;28;21052;-75
2021/12/26 08:51:07;;;;;;;5.80;5.20;;;7.90;84.70;;;;;;5032969;28;20451;-75
2021/12/26 08:53:35;;;;;;;5.60;5.00;;;7.70;84.90;;;;;;5032637;28;20451;-75
2021/12/26 08:56:04;;;;;;;6.03;5.43;;;7.50;86.10;;;;;;5033124;28;20463;-75
2021/12/26 08:58:31;;;;;;;5.57;4.97;;;7.70;85.90;;;;;;5032936;28;20443;-75
2021/12/26 09:00:57;;;;;;;4.80;4.30;;;7.70;85.50;;;;;;5034422;28;20450;-75
2021/12/26 09:03:24;;;;;;;5.70;5.13;;;7.50;86.30;;;;;;5036282;28;20872;-75
2021/12/26 09:05:51;;;;;;;4.73;4.10;;;7.70;86.10;;;;;;5036568;28;20468;-75
2021/12/26 09:08:17;;;;;;;4.67;3.77;;;7.80;85.70;;;;;;5037262;28;20502;-75
2021/12/26 09:10:46;;;;;;;5.10;4.60;;;8.00;85.30;;;;;;5036463;28;20782;-75
2021/12/26 09:13:12;;;;;;;5.20;4.00;;;8.00;85.10;;;;;;5036449;28;20443;-75
2021/12/26 09:15:39;;;;;;;4.83;4.30;;;8.10;84.80;;;;;;5036117;28;20470;-75
2021/12/26 09:18:06;;;;;;;5.37;4.73;;;8.10;84.90;;;;;;5036733;28;20432;-75
2021/12/26 09:20:33;;;;;;;4.90;4.40;;;8.10;84.40;;;;;;5036311;28;20443;-75
2021/12/26 09:23:00;;;;;;;5.20;4.30;;;8.10;84.30;;;;;;5036249;28;20443;-75
2021/12/26 09:25:27;;;;;;;5.97;5.37;;;8.10;84.30;;;;;;5036105;28;20458;-75
2021/12/26 09:27:56;;;;;;;5.87;4.90;;;8.10;84.80;;;;;;5036145;28;20436;-75
2021/12/26 09:30:23;;;;;;;5.70;5.20;;;8.10;84.50;;;;;;5036179;28;20455;-75
2021/12/26 09:32:50;;;;;;;5.27;4.70;;;8.10;85.20;;;;;;5036089;28;20493;-75
2021/12/26 09:35:16;;;;;;;6.33;5.73;;;8.20;85.00;;;;;;5036079;28;20447;-75
2021/12/26 09:37:44;;;;;;;6.10;5.50;;;8.10;84.40;;;;;;5035945;28;20467;-75
2021/12/26 09:40:13;;;;;;;5.50;5.00;;;8.20;84.90;;;;;;5035705;28;21008;-75
2021/12/26 09:42:39;;;;;;;5.03;4.40;;;7.70;85.30;;;;;;5035640;28;20859;-75
2021/12/26 09:45:09;;;;;;;5.27;4.77;;;7.60;87.00;;;;;;5035870;28;20443;-75
2021/12/26 09:47:36;;;;;;;6.50;5.70;;;7.70;86.50;;;;;;5035819;28;20491;-75
2021/12/26 09:50:03;;;;;;;5.20;4.70;;;7.70;86.30;;;;;;5035684;28;20483;-75
2021/12/26 09:52:29;;;;;;;5.77;4.50;;;7.50;86.80;;;;;;5035429;28;20800;-76
2021/12/26 09:54:56;;;;;;;6.13;5.53;;;7.60;87.50;;;;;;5035682;28;20521;-75
2021/12/26 09:57:24;;;;;;;5.00;4.50;;;7.70;87.00;;;;;;5035595;28;20876;-76
2021/12/26 09:59:51;;;;;;;6.40;5.60;;;7.70;87.00;;;;;;5035588;28;20451;-76
2021/12/26 10:02:19;;;;;;;5.00;4.50;;;7.70;87.90;;;;;;5035570;28;20455;-75
2021/12/26 10:04:47;;;;;;;5.20;4.70;;;7.80;87.70;;;;;;5035951;28;20864;-76
2021/12/26 10:07:16;;;;;;;5.60;5.10;;;7.90;86.80;;;;;;5035380;28;20468;-75
2021/12/26 10:09:45;;;;;;;6.00;5.40;;;7.80;87.40;;;;;;5035423;28;20475;-75
2021/12/26 10:12:13;;;;;;;4.63;3.90;;;8.00;87.20;;;;;;5034177;28;20501;-75
2021/12/26 10:14:43;;;;;;;5.00;4.50;;;8.10;87.10;;;;;;5035338;28;20482;-75
2021/12/26 10:17:11;;;;;;;5.00;4.47;;;8.30;87.10;;;;;;5036485;28;20913;-75
2021/12/26 10:19:43;;;;;;;4.37;3.80;;;8.40;87.20;;;;;;5035226;28;20439;-75
2021/12/26 10:22:10;;;;;;;3.87;3.47;;;8.50;86.80;;;;;;5035109;28;20433;-75
2021/12/26 10:24:39;;;;;;;4.70;4.20;;;8.60;85.70;;;;;;5035299;28;20443;-75
2021/12/26 10:27:08;;;;;;;3.93;3.53;;;8.60;86.70;;;;;;5034985;28;20545;-75
2021/12/26 10:29:38;;;;;;;3.83;3.03;;;8.70;86.80;;;;;;5034999;28;20853;-75
2021/12/26 10:32:09;;;;;;;3.67;3.10;;;8.80;85.50;;;;;;5035029;28;20450;-75
2021/12/26 10:34:41;;;;;;;4.00;2.90;;;8.60;86.20;;;;;;5035062;28;20432;-76
2021/12/26 10:37:10;;;;;;;4.33;3.80;;;8.30;87.00;;;;;;5034878;28;20513;-76
2021/12/26 10:39:40;;;;;;;3.93;3.53;;;8.50;87.00;;;;;;5034864;28;20451;-75
2021/12/26 10:42:10;;;;;;;3.80;3.30;;;8.40;86.80;;;;;;5034875;28;20448;-75
2021/12/26 10:44:41;;;;;;;4.00;3.30;;;8.40;88.10;;;;;;5034885;28;20509;-76
2021/12/26 10:47:10;;;;;;;4.60;3.37;;;8.20;88.50;;;;;;5034659;28;20517;-75
2021/12/26 10:49:45;;;;;;;4.43;3.40;;;8.20;88.50;;;;;;5034737;28;20475;-76
2021/12/26 10:52:16;;;;;;;3.87;3.37;;;8.30;88.70;;;;;;5034629;28;20809;-76
2021/12/26 10:54:44;;;;;;;4.03;3.20;;;8.10;89.20;;;;;;5039698;28;20486;-75
2021/12/26 10:57:20;;;;;;;4.77;3.60;;;7.90;89.80;;;;;;5034602;28;20471;-75
2021/12/26 10:59:49;;;;;;;4.27;3.37;;;8.00;89.60;;;;;;5034568;28;20427;-76
2021/12/26 11:02:24;;;;;;;4.77;3.70;;;7.80;90.60;;;;;;5034385;28;20455;-75
2021/12/26 11:05:03;;;;;;;3.43;2.50;;;8.20;90.60;;;;;;5034486;28;20921;-75
2021/12/26 11:07:31;;;;;;;3.70;3.10;;;8.40;89.80;;;;;;5034335;28;20471;-75
2021/12/26 11:10:05;;;;;;;4.20;3.70;;;8.20;89.40;;;;;;5035129;28;20479;-74
2021/12/26 11:12:40;;;;;;;3.70;3.03;;;8.30;90.70;;;;;;5034385;28;20434;-76
2021/12/26 11:15:09;;;;;;;4.40;3.27;;;8.30;89.50;;;;;;5034791;28;20451;-75
2021/12/26 11:17:38;;;;;;;3.60;3.00;;;8.20;90.00;;;;;;5033744;28;21077;-75
2021/12/26 11:20:07;;;;;;;4.00;3.50;;;8.30;89.90;;;;;;5034059;28;20443;-76
2021/12/26 11:22:34;;;;;;;3.50;2.80;;;8.40;90.40;;;;;;5034124;28;20504;-76
2021/12/26 11:25:00;;;;;;;3.83;2.83;;;8.50;90.20;;;;;;5033700;28;20486;-76
2021/12/26 11:27:28;;;;;;;3.93;3.30;;;8.70;90.00;;;;;;5033896;28;20514;-75
2021/12/26 11:29:55;;;;;;;3.80;3.13;;;8.60;89.30;;;;;;5033918;28;20506;-76
2021/12/26 11:32:26;;;;;;;3.83;2.80;;;8.60;88.70;;;;;;5033587;28;20452;-75
2021/12/26 11:34:53;;;;;;;4.07;3.57;;;8.80;89.20;;;;;;5033901;28;20531;-75
2021/12/26 11:37:22;;;;;;;6.20;5.60;;;9.00;88.70;;;;;;5033797;28;20491;-75
2021/12/26 11:39:51;;;;;;;3.50;2.70;;;9.10;88.60;;;;;;5033480;28;20940;-75
2021/12/26 11:42:54;;;;;;;3.43;3.13;;;9.10;87.10;;;;;;5033501;28;20854;-75
2021/12/26 11:45:29;;;;;;;3.37;2.67;;;9.40;88.10;;;;;;5033763;28;20478;-75
2021/12/26 11:48:39;;;;;;;3.30;2.47;;;9.60;86.70;;;;;;5033749;28;20431;-75
2021/12/26 11:51:32;;;;;;;3.33;2.67;;;9.10;86.90;;;;;;5032104;28;20447;-75
2021/12/26 11:54:33;;;;;;;3.47;2.57;;;9.30;87.40;;;;;;5033668;28;20432;-76
2021/12/26 11:57:18;;;;;;;3.20;2.30;;;9.60;86.60;;;;;;5033583;28;20470;-75
2021/12/26 12:00:06;;;;;;;3.40;2.70;;;9.70;86.20;;;;;;5033255;28;20772;-75
2021/12/26 12:02:38;;;;;;;2.70;2.10;;;9.70;85.90;;;;;;5033312;28;20431;-75
2021/12/26 12:05:14;;;;;;;2.87;2.10;;;9.70;85.10;;;;;;5033504;28;20443;-75
2021/12/26 12:07:54;;;;;;;3.37;2.30;;;9.60;86.40;;;;;;5033104;28;20981;-75
2021/12/26 12:10:34;;;;;;;4.70;2.40;;;9.40;86.40;;;;;;5033340;28;20478;-75
2021/12/26 12:13:01;;;;;;;3.83;3.40;;;9.30;86.80;;;;;;5033130;28;20961;-75
2021/12/26 12:15:48;;;;;;;3.10;2.30;;;9.40;88.00;;;;;;5033310;28;20525;-75
2021/12/26 12:18:18;;;;;;;3.30;3.00;;;9.90;87.10;;;;;;5033292;28;20459;-75
2021/12/26 12:20:46;;;;;;;3.53;2.70;;;10.00;86.60;;;;;;5033341;28;20847;-76
2021/12/26 12:23:18;;;;;;;3.40;2.73;;;9.80;86.80;;;;;;5032988;28;20510;-75
2021/12/26 12:25:52;;;;;;;3.53;2.40;;;9.80;86.60;;;;;;5033293;28;20471;-75
2021/12/26 12:28:26;;;;;;;3.33;2.67;;;9.80;86.70;;;;;;5033340;28;20428;-76
2021/12/26 12:30:55;;;;;;;3.10;2.13;;;9.60;87.00;;;;;;5033236;28;20478;-76
2021/12/26 12:33:28;;;;;;;3.60;3.00;;;9.70;87.10;;;;;;5033263;28;20506;-76
2021/12/26 12:36:04;;;;;;;2.90;2.07;;;10.00;87.40;;;;;;5034636;28;20502;-75
2021/12/26 12:38:37;;;;;;;3.07;2.27;;;10.00;86.80;;;;;;5037122;28;20451;-75
2021/12/26 12:41:09;;;;;;;2.97;2.00;;;9.70;87.20;;;;;;5037246;28;20432;-75
2021/12/26 12:43:44;;;;;;;3.20;2.47;;;9.80;87.40;;;;;;5037086;28;20450;-75
2021/12/26 12:46:11;;;;;;;2.80;2.03;;;9.60;88.50;;;;;;5037194;28;20509;-76
2021/12/26 12:48:45;;;;;;;2.90;2.10;;;9.70;87.90;;;;;;5037118;28;20457;-76
2021/12/26 12:51:37;;;;;;;2.70;1.87;;;9.90;87.40;;;;;;5037045;28;20467;-76
2021/12/26 12:54:07;;;;;;;2.90;1.97;;;9.70;87.50;;;;;;5036999;28;20428;-75
2021/12/26 12:56:44;;;;;;;2.93;2.17;;;9.90;87.50;;;;;;5036914;28;20493;-76
2021/12/26 12:59:42;;;;;;;3.00;1.90;;;10.00;87.30;;;;;;5036958;28;20485;-76
2021/12/26 13:02:25;;;;;;;2.87;1.93;;;9.90;87.30;;;;;;4975676;28;20805;-76
2021/12/26 13:04:51;;;;;;;3.13;1.77;;;10.00;87.20;;;;;;5029456;28;20934;-76
2021/12/26 13:07:20;;;;;;;3.30;1.97;;;10.00;86.70;;;;;;5036570;28;20463;-76
2021/12/26 13:09:50;;;;;;;3.00;1.83;;;10.20;86.70;;;;;;5036549;28;20534;-76
2021/12/26 13:12:19;;;;;;;2.77;2.00;;;10.10;86.30;;;;;;5036478;28;20482;-75
2021/12/26 13:14:49;;;;;;;3.10;2.20;;;10.20;86.90;;;;;;5036411;28;20477;-75
2021/12/26 13:17:24;;;;;;;2.90;2.03;;;10.00;86.50;;;;;;5036430;28;20552;-75
2021/12/26 13:19:56;;;;;;;2.90;1.80;;;10.00;87.50;;;;;;5036521;28;20514;-76
2021/12/26 13:22:23;;;;;;;3.20;2.10;;;9.80;88.10;;;;;;5036079;28;20442;-76
2021/12/26 13:24:50;;;;;;;2.80;2.03;;;9.90;88.80;;;;;;5036003;28;20447;-76
2021/12/26 13:27:25;;;;;;;2.70;2.00;;;10.10;87.90;;;;;;5036177;28;20467;-75
2021/12/26 13:29:53;;;;;;;2.83;1.70;;;10.30;87.20;;;;;;5036237;28;20474;-75
2021/12/26 13:32:20;;;;;;;2.90;1.70;;;10.40;86.80;;;;;;5036280;28;20459;-76
2021/12/26 13:34:55;;;;;;;2.93;2.03;;;10.60;86.10;;;;;;5036157;28;20482;-76
2021/12/26 13:37:22;;;;;;;2.70;2.07;;;10.50;86.70;;;;;;5036060;28;20482;-76
2021/12/26 13:39:55;;;;;;;2.80;1.90;;;10.60;85.90;;;;;;5036079;28;20489;-75
2021/12/26 13:42:22;;;;;;;3.00;1.70;;;10.60;86.20;;;;;;5036082;28;20523;-76
2021/12/26 13:44:50;;;;;;;2.93;1.87;;;10.60;86.10;;;;;;5035941;28;20534;-75
2021/12/26 13:47:17;;;;;;;2.60;1.80;;;10.70;86.30;;;;;;5035484;28;20521;-76
2021/12/26 13:49:43;;;;;;;3.23;2.00;;;10.70;85.40;;;;;;5035833;28;20483;-76
2021/12/26 13:52:10;;;;;;;2.67;1.43;;;10.80;85.90;;;;;;5035786;28;20447;-75
2021/12/26 13:54:47;;;;;;;2.50;1.40;;;10.80;85.20;;;;;;5035796;28;20448;-76
2021/12/26 13:57:16;;;;;;;2.80;2.17;;;10.90;85.40;;;;;;5035831;28;20467;-76
2021/12/26 13:59:44;;;;;;;3.93;2.47;;;10.80;84.90;;;;;;5035429;28;20996;-75
2021/12/26 14:02:14;;;;;;;3.63;2.80;;;10.70;85.40;;;;;;5036219;28;20501;-75
2021/12/26 14:04:42;;;;;;;3.00;2.30;;;10.70;85.60;;;;;;5035783;28;20498;-76
2021/12/26 14:07:10;;;;;;;2.67;1.90;;;10.60;85.40;;;;;;5035803;28;20463;-76
2021/12/26 14:09:38;;;;;;;2.50;1.50;;;10.40;87.20;;;;;;5035611;28;20456;-76
2021/12/26 14:12:06;;;;;;;2.47;1.87;;;10.70;87.00;;;;;;5035709;28;20447;-76
2021/12/26 14:14:37;;;;;;;3.33;2.40;;;11.10;86.40;;;;;;5036116;28;20502;-76
2021/12/26 14:17:07;;;;;;;2.73;1.87;;;11.60;85.60;;;;;;5035280;28;20994;-76
2021/12/26 14:19:35;;;;;;;3.03;2.20;;;12.00;83.20;;;;;;5035115;28;20938;-76
2021/12/26 14:22:02;;;;;;;3.20;2.03;;;11.90;82.10;;;;;;5035397;28;20443;-76
2021/12/26 14:24:29;;;;;;;2.83;1.53;;;11.60;82.70;;;;;;5035409;28;20451;-76
2021/12/26 14:26:57;;;;;;;3.07;2.43;;;11.70;82.20;;;;;;5035382;28;20530;-76
2021/12/26 14:29:24;;;;;;;2.43;1.43;;;11.70;82.20;;;;;;5035247;28;20451;-76
2021/12/26 14:31:53;;;;;;;2.70;1.70;;;11.60;82.00;;;;;;5035074;28;20486;-76
2021/12/26 14:34:22;;;;;;;2.67;1.70;;;11.50;82.90;;;;;;5034769;28;20510;-76
2021/12/26 14:36:52;;;;;;;3.00;2.20;;;11.50;82.80;;;;;;5035095;28;20462;-76
2021/12/26 14:39:27;;;;;;;3.70;3.10;;;11.40;83.10;;;;;;5034908;28;20989;-76
2021/12/26 14:41:55;;;;;;;3.40;2.83;;;11.40;83.20;;;;;;5035681;28;20511;-76
2021/12/26 14:44:24;;;;;;;3.70;3.10;;;11.30;83.60;;;;;;5035639;28;20458;-76
2021/12/26 14:46:54;;;;;;;3.63;3.20;;;11.30;83.60;;;;;;5035174;28;20467;-76
2021/12/26 14:49:21;;;;;;;3.83;3.03;;;11.20;83.80;;;;;;5035975;28;20455;-76
2021/12/26 14:52:05;;;;;;;3.37;3.07;;;11.10;84.00;;;;;;5036081;28;20510;-76
2021/12/26 14:54:37;;;;;;;3.70;3.13;;;11.00;84.10;;;;;;5035910;28;20451;-76
2021/12/26 14:57:05;;;;;;;4.10;3.27;;;10.90;84.10;;;;;;5035389;28;20517;-76
2021/12/26 14:59:34;;;;;;;3.87;3.27;;;10.90;84.20;;;;;;5036672;28;20455;-76
2021/12/26 15:02:06;;;;;;;3.73;3.10;;;10.80;84.40;;;;;;5037275;28;20443;-76
2021/12/26 15:04:33;;;;;;;3.67;2.93;;;10.70;84.50;;;;;;5045990;28;20443;-76
2021/12/26 15:07:07;;;;;;;3.30;2.77;;;10.70;84.40;;;;;;5048060;28;20472;-75
2021/12/26 15:09:41;;;;;;;4.07;3.67;;;10.70;84.40;;;;;;5057740;28;20450;-76
2021/12/26 15:12:28;;;;;;;3.97;3.50;;;10.80;84.20;;;;;;5051185;28;20426;-77
2021/12/26 15:15:10;;;;;;;3.70;3.30;;;10.70;84.20;;;;;;5035186;28;20435;-75
2021/12/26 15:17:37;;;;;;;4.27;3.20;;;10.60;84.20;;;;;;5034299;28;20982;-76
2021/12/26 15:20:23;;;;;;;4.07;3.23;;;10.60;84.20;;;;;;5034668;28;20493;-75
2021/12/26 15:22:58;;;;;;;4.50;3.37;;;10.60;84.40;;;;;;5034404;28;20871;-76
2021/12/26 15:25:28;;;;;;;3.93;3.37;;;10.50;84.30;;;;;;5034160;28;20431;-75
2021/12/26 15:28:06;;;;;;;3.47;3.10;;;10.40;84.40;;;;;;5035049;28;20497;-76
2021/12/26 15:30:33;;;;;;;4.43;4.03;;;10.30;84.40;;;;;;5034438;28;20561;-76
2021/12/26 15:33:00;;;;;;;5.73;5.23;;;10.30;84.90;;;;;;5034176;28;20517;-76
2021/12/26 15:35:27;;;;;;;4.03;3.63;;;10.00;85.30;;;;;;5034298;28;20447;-76
2021/12/26 15:37:55;;;;;;;4.33;3.93;;;9.90;85.70;;;;;;5033746;28;20451;-75
2021/12/26 15:40:21;;;;;;;3.57;3.20;;;9.90;85.80;;;;;;5034001;28;20444;-75
2021/12/26 15:42:48;;;;;;;3.83;3.23;;;10.00;85.60;;;;;;5033725;28;21004;-75
2021/12/26 15:45:15;;;;;;;4.07;3.63;;;10.00;85.50;;;;;;5033559;28;21001;-75
2021/12/26 15:47:42;;;;;;;5.27;4.60;;;10.00;85.40;;;;;;5033739;28;20521;-75
2021/12/26 15:50:11;;;;;;;6.53;5.93;;;10.00;85.00;;;;;;5033727;28;20530;-75
2021/12/26 15:52:37;;;;;;;4.40;3.93;;;10.00;85.00;;;;;;5033778;28;20497;-75
2021/12/26 15:55:07;;;;;;;4.87;4.37;;;10.00;85.00;;;;;;5034263;28;20481;-76
2021/12/26 15:57:33;;;;;;;3.53;3.20;;;10.00;84.90;;;;;;5033534;28;20467;-76
2021/12/26 16:00:00;;;;;;;3.60;3.30;;;10.10;84.70;;;;;;5033693;28;20502;-76
2021/12/26 16:02:27;;;;;;;3.57;3.20;;;10.10;84.40;;;;;;5033603;28;20447;-75
2021/12/26 16:04:53;;;;;;;3.50;3.00;;;10.10;84.10;;;;;;5033699;28;20447;-76
2021/12/26 16:07:20;;;;;;;3.77;2.70;;;10.00;84.60;;;;;;5033436;28;20479;-76
2021/12/26 16:09:47;;;;;;;4.40;3.70;;;10.10;84.30;;;;;;5033456;28;20447;-75
2021/12/26 16:12:15;;;;;;;3.40;3.00;;;10.10;84.20;;;;;;5033510;28;20491;-75
2021/12/26 16:14:41;;;;;;;3.50;2.90;;;10.10;84.00;;;;;;5033461;28;20478;-76
2021/12/26 16:17:08;;;;;;;4.00;3.23;;;10.10;83.90;;;;;;5034901;28;20955;-76
2021/12/26 16:19:35;;;;;;;4.77;4.37;;;10.20;83.80;;;;;;5033427;28;20450;-76
2021/12/26 16:22:01;;;;;;;4.13;3.73;;;10.20;83.90;;;;;;5033354;28;20569;-76
2021/12/26 16:24:29;;;;;;;5.40;4.70;;;10.20;83.70;;;;;;5033369;28;20538;-76
2021/12/26 16:26:56;;;;;;;4.17;3.77;;;10.20;83.80;;;;;;5033384;28;20503;-76
2021/12/26 16:29:24;;;;;;;4.03;3.63;;;10.10;84.20;;;;;;5033389;28;20455;-75
2021/12/26 16:31:50;;;;;;;4.00;3.30;;;10.20;84.50;;;;;;5033129;28;20485;-75
2021/12/26 16:34:17;;;;;;;6.30;4.60;;;10.20;84.40;;;;;;5033254;28;20501;-75
2021/12/26 16:36:44;;;;;;;3.97;3.57;;;10.20;84.30;;;;;;5032787;28;20879;-75
2021/12/26 16:39:11;;;;;;;4.13;3.73;;;10.20;84.40;;;;;;5033514;28;20455;-75
2021/12/26 16:41:38;;;;;;;4.03;3.50;;;9.90;85.30;;;;;;5033135;28;20439;-75
2021/12/26 16:44:05;;;;;;;5.50;5.00;;;9.90;85.60;;;;;;5033162;28;20440;-75
2021/12/26 16:46:33;;;;;;;5.43;4.57;;;10.00;85.60;;;;;;5033097;28;20482;-74
2021/12/26 16:49:00;;;;;;;5.67;5.17;;;10.10;85.30;;;;;;5033026;28;20505;-75
2021/12/26 16:51:27;;;;;;;5.03;3.93;;;10.00;85.10;;;;;;5032995;28;20475;-75
2021/12/26 16:53:55;;;;;;;4.57;4.17;;;10.00;85.50;;;;;;5033053;28;20454;-75
2021/12/26 16:56:22;;;;;;;4.53;4.10;;;10.00;85.70;;;;;;5032939;28;20479;-75
2021/12/26 16:58:49;;;;;;;4.60;4.20;;;10.10;85.40;;;;;;5033050;28;20451;-75
2021/12/26 17:01:16;;;;;;;5.30;4.80;;;10.20;85.20;;;;;;5033039;28;20443;-75
2021/12/26 17:03:44;;;;;;;6.83;5.40;;;10.20;85.20;;;;;;5032966;28;20871;-75